Time;durP1;ratioP1;P1;durP2;ratioP2;P2;SDS_P1;SDS_P2;PMS_P1;PMS_P2;Temp;Humidity;BMP_temperature;BMP_pressure;BME280_temperature;BME280_humidity;BME280_pressure;Samples;Min_cycle;Max_cycle;Signal;HPM_P1;HPM_P2
2021/07/22 00:01:47;;;;;;;12.25;8.35;;;;;;;17.58;63.57;99412.52;2291211;78;21339;-79
2021/07/22 00:04:47;;;;;;;10.13;7.53;;;;;;;17.56;63.54;99410.33;2291421;78;20940;-78
2021/07/22 00:07:48;;;;;;;11.22;6.37;;;;;;;17.54;63.47;99415.63;2291123;78;20942;-78
2021/07/22 00:10:48;;;;;;;14.63;7.17;;;;;;;17.50;63.67;99412.57;2291259;78;20940;-79
2021/07/22 00:13:49;;;;;;;13.65;7.22;;;;;;;17.52;63.56;99417.40;2291224;78;20976;-78
2021/07/22 00:16:50;;;;;;;8.25;6.40;;;;;;;17.49;63.59;99420.06;2290786;78;20980;-78
2021/07/22 00:19:50;;;;;;;9.25;7.28;;;;;;;17.46;63.42;99420.08;2291260;78;20972;-79
2021/07/22 00:22:51;;;;;;;14.83;7.42;;;;;;;17.45;63.55;99414.37;2291305;78;20908;-79
2021/07/22 00:25:51;;;;;;;8.50;7.00;;;;;;;17.44;63.60;99420.53;2291271;78;20968;-80
2021/07/22 00:28:52;;;;;;;11.28;7.30;;;;;;;17.43;63.54;99419.66;2291413;78;21284;-79
2021/07/22 00:31:53;;;;;;;12.93;7.10;;;;;;;17.43;63.65;99422.30;2291368;78;20924;-80
2021/07/22 00:34:53;;;;;;;11.08;7.75;;;;;;;17.42;63.75;99420.55;2291304;78;20999;-79
2021/07/22 00:37:54;;;;;;;10.10;7.85;;;;;;;17.40;63.77;99428.91;2291022;78;20971;-80
2021/07/22 00:40:56;;;;;;;10.93;8.48;;;;;;;17.34;63.97;99418.40;2291112;78;20936;-79
2021/07/22 00:43:56;;;;;;;12.25;7.97;;;;;;;17.33;64.27;99421.02;2291225;78;21347;-78
2021/07/22 00:46:57;;;;;;;9.73;7.45;;;;;;;17.34;64.26;99407.84;2291301;78;20971;-79
2021/07/22 00:49:57;;;;;;;11.90;7.12;;;;;;;17.33;64.43;99417.93;2290921;78;20924;-80
2021/07/22 00:52:58;;;;;;;11.53;7.10;;;;;;;17.33;64.31;99414.41;2291265;78;21371;-79
2021/07/22 00:55:59;;;;;;;17.23;7.95;;;;;;;17.29;64.44;99412.23;2291278;78;20976;-80
2021/07/22 00:58:59;;;;;;;9.88;7.05;;;;;;;17.27;64.44;99406.53;2291184;78;20955;-81
2021/07/22 01:02:00;;;;;;;17.17;8.43;;;;;;;17.26;64.46;99410.94;2291296;78;20967;-80
2021/07/22 01:05:00;;;;;;;12.05;7.53;;;;;;;17.28;64.54;99411.80;2290953;78;21422;-79
2021/07/22 01:08:01;;;;;;;8.88;7.33;;;;;;;17.27;64.50;99416.65;2291077;78;20939;-80
2021/07/22 01:11:01;;;;;;;10.28;7.97;;;;;;;17.27;64.44;99415.77;2291172;78;21435;-80
2021/07/22 01:14:02;;;;;;;17.07;8.15;;;;;;;17.26;64.41;99417.98;2291344;78;21344;-81
2021/07/22 01:17:02;;;;;;;10.38;6.87;;;;;;;17.23;64.57;99416.23;2291114;78;20964;-80
2021/07/22 01:20:03;;;;;;;10.48;8.03;;;;;;;17.23;64.66;99412.72;2290999;78;20982;-78
2021/07/22 01:23:04;;;;;;;9.93;7.47;;;;;;;17.23;64.93;99412.72;2287564;78;20938;-77
2021/07/22 01:26:04;;;;;;;12.95;8.05;;;;;;;17.23;65.23;99407.44;2281016;78;21358;-78
2021/07/22 01:29:05;;;;;;;12.35;7.05;;;;;;;17.23;65.23;99407.44;2280976;78;21363;-77
2021/07/22 01:32:05;;;;;;;10.08;7.08;;;;;;;17.20;65.30;99411.85;2281206;78;20918;-78
2021/07/22 01:35:06;;;;;;;10.93;7.87;;;;;;;17.20;65.43;99411.85;2281151;78;20930;-78
2021/07/22 01:38:06;;;;;;;9.40;7.47;;;;;;;17.20;65.46;99409.22;2281059;78;20969;-79
2021/07/22 01:41:07;;;;;;;10.95;7.83;;;;;;;17.20;65.48;99407.02;2280996;78;20934;-78
2021/07/22 01:44:07;;;;;;;11.48;7.62;;;;;;;17.18;65.37;99405.70;2281047;78;20922;-79
2021/07/22 01:47:08;;;;;;;12.50;8.05;;;;;;;17.15;65.57;99404.41;2280996;77;21278;-77
2021/07/22 01:50:08;;;;;;;14.07;7.67;;;;;;;17.14;65.46;99401.34;2280951;78;20911;-77
2021/07/22 01:53:09;;;;;;;9.75;7.75;;;;;;;17.13;65.35;99403.98;2281006;77;20930;-78
2021/07/22 01:56:09;;;;;;;10.45;8.50;;;;;;;17.09;65.50;99400.48;2280919;78;20903;-77
2021/07/22 02:02:26;;;;;;;13.38;8.45;;;;;;;17.09;65.46;99400.48;2348580;76;22441;-78
2021/07/22 02:05:27;;;;;;;15.58;9.20;;;;;;;17.02;65.39;99400.09;2317627;77;20971;-78
2021/07/22 02:08:28;;;;;;;10.82;8.80;;;;;;;17.00;65.49;99397.90;2317603;77;21370;-78
2021/07/22 02:11:28;;;;;;;10.13;8.23;;;;;;;17.00;65.53;99400.53;2317810;77;21299;-79
2021/07/22 02:14:29;;;;;;;13.18;8.65;;;;;;;17.02;65.57;99399.20;2317859;77;20947;-78
2021/07/22 02:17:29;;;;;;;12.93;8.68;;;;;;;17.01;65.43;99394.38;2317376;77;21263;-78
2021/07/22 02:20:29;;;;;;;15.55;8.68;;;;;;;17.02;65.46;99397.89;2317727;77;21002;-78
2021/07/22 02:23:30;;;;;;;11.73;8.83;;;;;;;17.00;65.48;99394.38;2317963;77;21320;-78
2021/07/22 02:26:30;;;;;;;12.88;9.18;;;;;;;16.99;65.56;99404.50;2317791;77;20903;-79
2021/07/22 02:29:31;;;;;;;11.80;9.50;;;;;;;16.96;65.55;99401.44;2317266;77;20908;-79
2021/07/22 02:32:31;;;;;;;11.38;9.23;;;;;;;16.93;65.71;99398.81;2288373;77;20982;-81
2021/07/22 02:35:32;;;;;;;9.68;8.55;;;;;;;16.90;65.77;99400.15;2292217;78;20944;-79
2021/07/22 02:38:32;;;;;;;11.25;8.98;;;;;;;16.88;66.00;99403.23;2292138;78;21348;-78
2021/07/22 02:41:33;;;;;;;17.48;9.25;;;;;;;16.86;66.07;99407.64;2292274;78;21379;-78
2021/07/22 02:44:38;;;;;;;13.53;9.73;;;;;;;16.86;66.26;99408.95;2292207;78;20952;-78
2021/07/22 02:47:36;;;;;;;14.65;9.35;;;;;;;16.85;66.18;99406.76;2291662;77;21035;-78
2021/07/22 02:50:36;;;;;;;12.25;9.63;;;;;;;16.83;66.45;99413.80;2292135;78;21305;-78
2021/07/22 02:53:37;;;;;;;14.78;9.75;;;;;;;16.80;66.44;99407.22;2292194;78;20948;-78
2021/07/22 02:56:37;;;;;;;14.50;9.78;;;;;;;16.80;66.39;99408.98;2292391;78;20901;-78
2021/07/22 02:59:38;;;;;;;14.25;9.93;;;;;;;16.79;66.46;99405.91;2292003;78;20909;-79
2021/07/22 03:02:38;;;;;;;12.98;9.08;;;;;;;16.78;66.61;99414.70;2293836;78;20936;-78
2021/07/22 03:05:39;;;;;;;16.73;9.58;;;;;;;16.79;66.71;99417.77;2292313;77;21518;-78
2021/07/22 03:08:39;;;;;;;15.68;9.73;;;;;;;16.79;66.64;99408.55;2291817;77;21375;-79
2021/07/22 03:11:40;;;;;;;12.93;9.53;;;;;;;16.75;66.65;99416.03;2291654;78;20995;-78
2021/07/22 03:14:45;;;;;;;12.50;9.45;;;;;;;16.76;66.98;99406.80;2260016;78;20970;-79
2021/07/22 03:17:45;;;;;;;16.35;9.48;;;;;;;16.76;66.97;99412.08;2291471;78;20999;-79
2021/07/22 03:20:49;;;;;;;14.20;9.68;;;;;;;16.75;67.09;99411.64;2291463;77;21396;-78
2021/07/22 03:23:49;;;;;;;13.88;9.63;;;;;;;16.75;67.21;99419.98;2291344;77;20987;-79
2021/07/22 03:26:50;;;;;;;13.25;9.20;;;;;;;16.74;67.20;99422.19;2291607;77;20896;-82
2021/07/22 03:29:50;;;;;;;14.87;8.93;;;;;;;16.76;67.23;99427.02;2291602;77;20952;-78
2021/07/22 03:32:50;;;;;;;14.70;10.18;;;;;;;16.76;67.23;99427.02;2291265;77;20956;-79
2021/07/22 03:35:51;;;;;;;17.23;10.10;;;;;;;16.78;67.26;99426.56;2291814;77;20991;-78
2021/07/22 03:38:52;;;;;;;20.27;10.05;;;;;;;16.77;67.42;99421.73;2291738;78;20940;-79
2021/07/22 03:41:54;;;;;;;13.85;10.15;;;;;;;16.76;67.29;99423.06;2291146;77;20988;-80
2021/07/22 03:44:55;;;;;;;15.70;9.70;;;;;;;16.79;67.39;99429.20;2291236;77;20944;-80
2021/07/22 03:47:58;;;;;;;14.58;11.03;;;;;;;16.76;67.43;99431.84;2291280;78;20947;-79
2021/07/22 03:50:59;;;;;;;14.13;9.60;;;;;;;16.76;67.52;99423.94;2291442;77;20970;-78
2021/07/22 03:53:59;;;;;;;21.80;10.50;;;;;;;16.81;67.54;99422.16;2290892;78;20960;-79
2021/07/22 03:57:00;;;;;;;12.45;9.75;;;;;;;16.84;67.50;99426.55;2291441;77;20912;-79
2021/07/22 04:00:00;;;;;;;13.85;11.00;;;;;;;16.84;67.40;99423.47;2291881;78;21012;-80
2021/07/22 04:03:01;;;;;;;13.90;10.20;;;;;;;16.90;67.42;99426.95;2291808;78;21011;-80
2021/07/22 04:06:04;;;;;;;16.87;10.93;;;;;;;16.92;67.52;99430.02;2291399;78;20955;-78
2021/07/22 04:09:05;;;;;;;16.30;10.63;;;;;;;16.90;67.41;99430.47;2291115;78;21000;-78
2021/07/22 04:12:08;;;;;;;13.32;10.50;;;;;;;16.95;67.35;99423.42;2291067;78;20995;-80
2021/07/22 04:15:08;;;;;;;13.43;10.27;;;;;;;17.10;67.43;99425.98;2291259;78;20928;-79
2021/07/22 04:18:16;;;;;;;13.83;10.60;;;;;;;17.10;67.43;99425.98;2290727;78;21397;-79
2021/07/22 04:21:17;;;;;;;17.60;10.78;;;;;;;17.15;67.20;99425.95;2290271;77;21063;-79
2021/07/22 04:24:18;;;;;;;13.95;10.63;;;;;;;17.21;67.07;99424.59;2291311;78;20958;-80
2021/07/22 04:27:21;;;;;;;17.98;11.15;;;;;;;17.30;66.96;99423.67;2291282;78;21320;-78
2021/07/22 04:30:23;;;;;;;17.50;10.90;;;;;;;17.36;66.85;99424.98;2291343;77;21071;-80
2021/07/22 04:33:23;;;;;;;14.30;10.25;;;;;;;17.43;66.68;99422.73;2290263;78;20980;-79
2021/07/22 04:36:24;;;;;;;13.78;9.63;;;;;;;17.54;66.50;99419.58;2289725;78;20932;-78
2021/07/22 04:39:25;;;;;;;13.70;10.98;;;;;;;17.63;66.38;99416.88;2289967;78;20936;-79
2021/07/22 04:42:25;;;;;;;13.50;10.35;;;;;;;17.72;66.29;99414.64;2291203;78;21402;-80
2021/07/22 04:45:25;;;;;;;17.62;11.25;;;;;;;17.85;65.89;99420.70;2291156;78;20937;-80
2021/07/22 04:48:26;;;;;;;16.70;10.35;;;;;;;17.96;65.85;99418.84;2291374;78;20927;-79
2021/07/22 04:51:27;;;;;;;16.45;10.58;;;;;;;18.09;65.40;99427.96;2291391;78;21100;-79
2021/07/22 04:54:28;;;;;;;14.98;11.10;;;;;;;18.11;65.09;99423.98;2291947;78;20947;-80
2021/07/22 04:57:28;;;;;;;16.82;10.85;;;;;;;18.21;65.11;99424.81;2291519;78;20924;-80
2021/07/22 05:00:29;;;;;;;18.12;11.78;;;;;;;18.32;64.76;99422.48;2289807;78;21036;-80
2021/07/22 05:03:29;;;;;;;14.90;10.82;;;;;;;18.38;64.57;99418.45;2281640;78;21036;-80
2021/07/22 05:06:30;;;;;;;19.32;10.05;;;;;;;18.51;64.35;99423.61;2281695;78;21353;-78
2021/07/22 05:09:30;;;;;;;19.40;10.63;;;;;;;18.64;64.08;99421.30;2280972;78;20977;-78
2021/07/22 05:12:31;;;;;;;14.07;11.22;;;;;;;18.80;63.86;99418.02;2280770;78;20954;-80
2021/07/22 05:15:31;;;;;;;13.78;9.00;;;;;;;19.09;63.55;99418.55;2280850;78;20918;-78
2021/07/22 05:18:32;;;;;;;14.23;9.98;;;;;;;19.39;62.95;99410.62;2281212;77;20977;-80
2021/07/22 05:21:32;;;;;;;14.10;10.45;;;;;;;19.67;62.20;99422.58;2282305;78;21029;-81
2021/07/22 05:24:33;;;;;;;25.27;11.53;;;;;;;19.71;60.94;99424.73;2281554;78;20961;-79
2021/07/22 05:27:33;;;;;;;12.93;9.28;;;;;;;19.87;60.86;99433.31;2280551;78;20988;-79
2021/07/22 05:30:34;;;;;;;14.87;9.40;;;;;;;19.99;60.98;99424.73;2280516;78;21079;-80
2021/07/22 05:33:34;;;;;;;14.90;9.65;;;;;;;20.12;60.05;99428.05;2281524;78;21001;-81
2021/07/22 05:36:35;;;;;;;12.73;10.20;;;;;;;20.38;60.12;99434.66;2281484;78;20933;-80
2021/07/22 05:39:37;;;;;;;14.03;9.40;;;;;;;20.63;59.09;99432.00;2281221;78;21302;-82
2021/07/22 05:42:38;;;;;;;11.75;9.00;;;;;;;20.75;59.07;99431.76;2281844;78;20966;-81
2021/07/22 05:45:38;;;;;;;11.83;8.78;;;;;;;21.01;58.49;99433.03;2282007;78;20993;-81
2021/07/22 05:48:39;;;;;;;13.18;8.70;;;;;;;21.07;57.59;99430.25;2282111;78;20918;-80
2021/07/22 05:51:39;;;;;;;11.10;8.38;;;;;;;21.10;57.29;99432.84;2280316;78;21374;-81
2021/07/22 05:54:40;;;;;;;14.47;8.70;;;;;;;21.08;57.75;99434.20;2280687;78;20914;-80
2021/07/22 05:57:41;;;;;;;11.97;8.78;;;;;;;21.08;57.45;99442.62;2279946;78;20950;-82
2021/07/22 06:00:41;;;;;;;17.75;8.48;;;;;;;21.08;57.45;99442.62;2281140;77;21596;-82
2021/07/22 06:03:42;;;;;;;11.35;9.03;;;;;;;21.11;57.17;99442.09;2291051;78;20967;-79
2021/07/22 06:06:43;;;;;;;12.28;8.95;;;;;;;21.05;57.24;99439.57;2291121;78;20951;-78
2021/07/22 06:09:44;;;;;;;13.15;9.03;;;;;;;21.00;57.33;99437.47;2289373;78;21315;-80
2021/07/22 06:12:44;;;;;;;10.08;9.05;;;;;;;21.06;57.38;99442.65;2290753;78;20963;-81
2021/07/22 06:15:45;;;;;;;12.53;8.68;;;;;;;21.15;57.29;99444.23;2289547;78;20932;-79
2021/07/22 06:18:45;;;;;;;13.25;8.28;;;;;;;21.37;56.74;99445.55;2289698;78;21022;-81
2021/07/22 06:21:46;;;;;;;12.15;8.50;;;;;;;21.49;56.55;99438.63;2290208;78;20995;-80
2021/07/22 06:24:47;;;;;;;13.83;8.28;;;;;;;21.61;56.10;99434.36;2290379;78;20987;-80
2021/07/22 06:27:47;;;;;;;17.73;9.53;;;;;;;21.63;55.68;99439.18;2290872;78;21308;-81
2021/07/22 06:30:47;;;;;;;10.72;8.43;;;;;;;21.76;55.78;99441.12;2290086;78;20958;-81
2021/07/22 06:33:48;;;;;;;14.47;8.58;;;;;;;22.04;54.97;99444.02;2291698;78;20972;-79
2021/07/22 06:36:48;;;;;;;11.50;9.25;;;;;;;22.33;55.00;99437.06;2290217;78;20940;-79
2021/07/22 06:39:49;;;;;;;10.53;8.63;;;;;;;22.52;54.04;99440.98;2290998;78;21100;-82
2021/07/22 06:42:49;;;;;;;10.60;8.28;;;;;;;22.50;54.08;99435.70;2290882;78;21356;-79
2021/07/22 06:45:50;;;;;;;13.35;8.35;;;;;;;22.55;53.95;99439.60;2290353;78;21291;-80
2021/07/22 06:48:54;;;;;;;11.25;8.25;;;;;;;22.66;53.79;99433.98;2291126;78;20967;-81
2021/07/22 06:51:53;;;;;;;16.52;9.50;;;;;;;22.77;53.36;99428.77;2290284;77;20991;-80
2021/07/22 06:54:53;;;;;;;10.03;8.78;;;;;;;23.18;53.80;99428.06;2290069;78;20921;-79
2021/07/22 06:57:54;;;;;;;9.78;7.72;;;;;;;23.42;52.16;99428.67;2291456;78;20960;-81
2021/07/22 07:00:54;;;;;;;8.90;8.00;;;;;;;23.31;52.61;99426.77;2290564;78;21022;-80
2021/07/22 07:03:55;;;;;;;18.57;8.93;;;;;;;23.60;52.58;99427.26;2290934;78;21019;-79
2021/07/22 07:06:55;;;;;;;14.65;7.72;;;;;;;23.67;51.62;99431.94;2291166;78;21340;-78
2021/07/22 07:09:56;;;;;;;9.93;7.53;;;;;;;23.83;51.73;99431.84;2289589;78;20964;-81
2021/07/22 07:16:02;;;;;;;13.43;8.90;;;;;;;24.25;50.26;99430.00;2267669;78;21051;-84
2021/07/22 07:19:07;;;;;;;14.38;7.33;;;;;;;24.03;50.77;99436.06;2291033;78;20983;-79
2021/07/22 07:22:05;;;;;;;9.13;7.65;;;;;;;23.96;50.67;99429.64;2290652;77;20987;-80
2021/07/22 07:25:12;;;;;;;8.10;7.10;;;;;;;23.93;50.93;99425.75;2291029;78;20948;-79
2021/07/22 07:28:12;;;;;;;9.00;7.50;;;;;;;23.96;51.42;99425.65;2291123;77;20924;-78
2021/07/22 07:31:13;;;;;;;11.08;7.50;;;;;;;24.02;51.23;99422.31;2291144;78;20987;-79
2021/07/22 07:34:13;;;;;;;11.28;7.92;;;;;;;24.04;50.29;99425.80;2291128;78;21343;-79
2021/07/22 07:37:14;;;;;;;11.05;7.30;;;;;;;24.05;51.10;99428.87;2290439;78;21023;-78
2021/07/22 07:40:14;;;;;;;19.20;13.65;;;;;;;24.14;50.63;99429.90;2290437;78;20956;-79
2021/07/22 07:43:15;;;;;;;15.32;7.20;;;;;;;24.17;50.34;99418.72;2291086;78;21043;-81
2021/07/22 07:46:15;;;;;;;8.53;7.72;;;;;;;24.08;50.37;99416.77;2290619;78;21402;-80
2021/07/22 07:49:16;;;;;;;14.45;7.08;;;;;;;24.16;50.74;99417.84;2291013;78;21002;-80
2021/07/22 07:52:16;;;;;;;12.60;6.53;;;;;;;24.21;50.59;99421.23;2291187;78;20939;-79
2021/07/22 07:55:17;;;;;;;10.82;6.35;;;;;;;24.22;49.66;99421.64;2290070;78;20992;-79
2021/07/22 07:58:18;;;;;;;10.65;6.05;;;;;;;24.11;50.32;99419.34;2289666;78;20998;-81
2021/07/22 08:01:18;;;;;;;11.08;5.90;;;;;;;24.26;49.76;99419.73;2284600;77;21428;-81
2021/07/22 08:04:19;;;;;;;7.90;4.97;;;;;;;24.15;49.46;99420.97;2248400;78;20967;-80
2021/07/22 08:07:19;;;;;;;6.42;5.67;;;;;;;24.04;49.12;99420.47;2248430;78;20939;-81
2021/07/22 08:10:20;;;;;;;7.05;4.87;;;;;;;24.03;48.57;99426.72;2248427;78;20990;-81
2021/07/22 08:13:20;;;;;;;6.10;5.08;;;;;;;23.87;48.81;99418.83;2248515;78;21344;-80
2021/07/22 08:16:21;;;;;;;9.28;4.83;;;;;;;23.93;48.91;99415.95;2248689;78;20928;-81
2021/07/22 08:19:21;;;;;;;14.20;5.53;;;;;;;24.07;48.82;99411.03;2249462;78;20932;-82
2021/07/22 08:22:24;;;;;;;11.25;4.92;;;;;;;24.03;48.69;99413.39;2248607;79;21027;-83
2021/07/22 08:25:24;;;;;;;19.30;5.15;;;;;;;23.91;47.93;99411.14;2248548;79;20984;-80
2021/07/22 08:28:25;;;;;;;12.55;5.28;;;;;;;23.85;48.33;99411.80;2248147;78;20916;-81
2021/07/22 08:31:26;;;;;;;8.10;4.85;;;;;;;23.82;48.51;99412.77;2247765;78;20948;-79
2021/07/22 08:34:27;;;;;;;7.75;4.50;;;;;;;23.78;48.64;99417.33;2247291;79;21010;-79
2021/07/22 08:37:27;;;;;;;6.78;4.35;;;;;;;23.69;49.05;99412.30;2248076;78;20924;-80
2021/07/22 08:40:28;;;;;;;4.87;4.15;;;;;;;23.70;49.58;99411.38;2248151;79;20932;-80
2021/07/22 08:43:28;;;;;;;7.28;5.33;;;;;;;23.67;49.42;99415.48;2247924;79;20991;-82
2021/07/22 08:46:29;;;;;;;9.78;5.22;;;;;;;23.51;49.47;99418.19;2248844;79;21315;-82
2021/07/22 08:49:29;;;;;;;6.15;4.97;;;;;;;23.24;50.09;99414.55;2248347;78;20967;-80
2021/07/22 08:52:30;;;;;;;8.35;4.75;;;;;;;22.96;50.04;99418.50;2248743;78;20960;-81
2021/07/22 08:55:30;;;;;;;6.08;4.75;;;;;;;22.85;50.36;99413.95;2248668;78;20901;-81
2021/07/22 08:58:31;;;;;;;6.33;4.95;;;;;;;22.68;50.88;99417.06;2248381;78;20920;-79
2021/07/22 09:01:32;;;;;;;11.53;5.37;;;;;;;22.55;51.05;99418.31;2252014;77;21037;-78
2021/07/22 09:04:33;;;;;;;5.83;5.22;;;;;;;22.44;51.67;99420.37;2280246;77;20965;-81
2021/07/22 09:07:34;;;;;;;6.92;5.00;;;;;;;22.28;52.21;99415.05;2280681;78;20985;-80
2021/07/22 09:10:34;;;;;;;8.93;5.05;;;;;;;22.07;52.78;99418.67;2280973;78;20970;-80
2021/07/22 09:13:37;;;;;;;9.75;5.60;;;;;;;21.99;53.16;99419.30;2280903;78;20934;-81
2021/07/22 09:19:40;;;;;;;10.15;6.17;;;;;;;21.90;53.31;99416.88;2258945;78;20958;-80
2021/07/22 09:22:40;;;;;;;6.92;4.95;;;;;;;21.83;53.37;99417.93;2281067;78;21366;-80
2021/07/22 09:25:41;;;;;;;7.40;5.00;;;;;;;21.77;53.43;99422.94;2281161;78;20941;-80
2021/07/22 09:28:42;;;;;;;12.05;5.65;;;;;;;21.73;53.98;99426.58;2281234;77;20966;-80
2021/07/22 09:31:43;;;;;;;23.85;6.03;;;;;;;21.70;54.24;99424.45;2275459;78;21177;-80
2021/07/22 09:34:44;;;;;;;7.37;4.92;;;;;;;21.61;54.61;99423.73;2275617;78;20998;-81
2021/07/22 09:37:44;;;;;;;11.03;5.80;;;;;;;21.60;54.76;99428.63;2280647;77;20998;-79
2021/07/22 09:40:45;;;;;;;8.93;5.60;;;;;;;21.59;55.03;99424.67;2280783;78;21345;-81
2021/07/22 09:43:45;;;;;;;10.53;4.87;;;;;;;21.56;55.35;99428.28;2280784;78;21378;-80
2021/07/22 09:46:46;;;;;;;12.10;6.10;;;;;;;21.55;55.54;99422.55;2280994;78;20919;-82
2021/07/22 09:49:47;;;;;;;12.00;5.85;;;;;;;21.57;55.55;99426.50;2280386;77;20902;-79
2021/07/22 09:52:47;;;;;;;7.33;5.55;;;;;;;21.62;55.64;99419.30;2279727;78;20985;-80
2021/07/22 09:55:49;;;;;;;9.03;5.60;;;;;;;21.74;55.81;99419.48;2280519;78;21381;-80
2021/07/22 09:58:49;;;;;;;10.72;5.25;;;;;;;21.84;55.75;99424.54;2281603;78;21058;-80
2021/07/22 10:01:49;;;;;;;24.75;11.20;;;;;;;21.96;54.66;99423.36;2266592;77;21515;-80
2021/07/22 10:04:50;;;;;;;31.33;14.33;;;;;;;22.01;54.83;99428.56;2229271;79;20959;-80
2021/07/22 10:07:51;;;;;;;40.00;19.82;;;;;;;22.10;54.78;99423.05;2244259;79;20960;-80
2021/07/22 10:10:51;;;;;;;16.75;6.62;;;;;;;22.12;54.64;99418.56;2245386;79;20959;-79
2021/07/22 10:13:52;;;;;;;29.35;13.83;;;;;;;22.22;54.15;99422.72;2244940;79;20996;-80
2021/07/22 10:16:52;;;;;;;8.60;5.40;;;;;;;22.37;53.89;99423.65;2246103;79;20956;-80
2021/07/22 10:19:53;;;;;;;14.83;5.42;;;;;;;22.37;53.27;99414.34;2245244;79;20972;-80
2021/07/22 10:22:53;;;;;;;13.75;8.60;;;;;;;22.39;53.30;99418.29;2245142;79;20964;-81
2021/07/22 10:25:54;;;;;;;13.55;8.45;;;;;;;22.46;53.23;99413.22;2245607;79;20960;-81
2021/07/22 10:28:54;;;;;;;7.85;5.87;;;;;;;22.53;53.10;99414.34;2246393;79;21308;-80
2021/07/22 10:31:55;;;;;;;10.38;6.62;;;;;;;22.57;53.07;99408.50;2245958;79;21290;-78
2021/07/22 10:34:55;;;;;;;9.95;6.00;;;;;;;22.62;52.92;99405.26;2245776;79;20967;-79
2021/07/22 10:37:56;;;;;;;9.40;6.33;;;;;;;22.67;52.87;99409.13;2245793;79;20960;-80
2021/07/22 10:41:00;;;;;;;12.00;7.25;;;;;;;22.70;52.64;99416.56;2245596;79;21001;-81
2021/07/22 10:44:00;;;;;;;9.58;5.80;;;;;;;22.72;52.30;99416.06;2244801;79;21078;-80
2021/07/22 10:47:02;;;;;;;9.95;6.08;;;;;;;22.72;52.28;99413.40;2245809;79;21321;-81
2021/07/22 10:50:04;;;;;;;6.40;5.62;;;;;;;22.75;52.29;99414.64;2223104;79;20983;-81
2021/07/22 10:53:05;;;;;;;13.55;11.93;;;;;;;22.77;52.55;99412.80;2244800;79;20970;-81
2021/07/22 10:56:05;;;;;;;9.63;6.70;;;;;;;22.92;52.70;99410.66;2243731;79;20908;-80
2021/07/22 10:59:06;;;;;;;14.15;12.85;;;;;;;23.05;52.50;99413.37;2245301;79;21027;-80
2021/07/22 11:02:07;;;;;;;8.63;6.10;;;;;;;23.14;51.76;99411.30;2248698;77;21041;-81
2021/07/22 11:05:07;;;;;;;10.30;5.90;;;;;;;23.21;50.88;99413.31;2279923;78;20969;-81
2021/07/22 11:08:08;;;;;;;8.58;5.50;;;;;;;23.28;51.28;99411.34;2280610;78;20974;-79
2021/07/22 11:11:09;;;;;;;10.23;5.30;;;;;;;23.36;50.67;99405.31;2279389;78;20972;-79
2021/07/22 11:14:09;;;;;;;9.90;6.10;;;;;;;23.41;50.54;99409.61;2280229;77;21032;-80
2021/07/22 11:17:10;;;;;;;7.20;5.60;;;;;;;23.48;50.61;99407.63;2280767;78;21051;-81
2021/07/22 11:20:10;;;;;;;7.15;5.72;;;;;;;23.58;50.27;99405.58;2280058;78;20977;-79
2021/07/22 11:23:11;;;;;;;7.92;5.35;;;;;;;23.68;49.76;99407.02;2280409;78;21401;-81
2021/07/22 11:26:14;;;;;;;9.88;5.62;;;;;;;23.71;49.24;99406.92;2280621;78;20922;-80
2021/07/22 11:29:15;;;;;;;25.08;6.90;;;;;;;23.82;48.69;99398.11;2280376;78;21037;-78
2021/07/22 11:32:17;;;;;;;5.62;4.97;;;;;;;23.94;48.91;99398.16;2260066;78;21313;-80
2021/07/22 11:35:19;;;;;;;9.10;5.80;;;;;;;24.00;48.28;99396.63;2280856;78;20989;-80
2021/07/22 11:38:20;;;;;;;7.75;5.60;;;;;;;24.00;48.01;99397.50;2280786;78;21393;-80
2021/07/22 11:41:20;;;;;;;17.20;5.95;;;;;;;24.04;47.59;99391.13;2280107;78;21021;-80
2021/07/22 11:44:23;;;;;;;6.53;5.40;;;;;;;24.11;47.82;99394.00;2280387;78;20986;-81
2021/07/22 11:47:24;;;;;;;10.03;5.20;;;;;;;24.09;47.02;99384.31;2280386;77;20965;-80
2021/07/22 11:50:26;;;;;;;9.48;5.80;;;;;;;24.12;47.41;99382.88;2280357;78;20985;-81
2021/07/22 11:53:27;;;;;;;6.90;5.60;;;;;;;24.21;47.09;99379.88;2280424;78;21361;-81
2021/07/22 11:56:27;;;;;;;14.20;6.45;;;;;;;24.28;47.00;99377.94;2279936;78;20930;-82
2021/07/22 11:59:28;;;;;;;11.78;6.05;;;;;;;24.38;46.91;99374.89;2280445;78;21425;-82
2021/07/22 12:02:29;;;;;;;8.80;5.15;;;;;;;24.47;46.48;99375.02;2274815;77;21647;-81
2021/07/22 12:05:29;;;;;;;8.95;5.92;;;;;;;24.39;46.36;99374.42;2247559;79;20979;-81
2021/07/22 12:08:30;;;;;;;7.62;5.40;;;;;;;24.39;46.80;99372.62;2247869;78;20927;-80
2021/07/22 12:11:30;;;;;;;9.18;5.55;;;;;;;24.34;47.32;99368.38;2248635;78;20963;-81
2021/07/22 12:14:31;;;;;;;9.33;5.33;;;;;;;24.17;46.80;99366.70;2247948;78;21078;-79
2021/07/22 12:17:31;;;;;;;8.03;5.90;;;;;;;24.00;46.90;99365.50;2247457;79;20968;-80
2021/07/22 12:20:33;;;;;;;10.55;6.85;;;;;;;23.95;47.54;99370.58;2248659;78;20971;-79
2021/07/22 12:23:34;;;;;;;7.67;6.67;;;;;;;23.93;47.51;99361.77;2248262;79;21007;-80
2021/07/22 12:26:34;;;;;;;7.83;6.50;;;;;;;23.88;47.99;99359.25;2248149;79;21003;-80
2021/07/22 12:29:35;;;;;;;13.13;6.83;;;;;;;23.92;47.65;99361.35;2248439;78;21052;-81
2021/07/22 12:32:35;;;;;;;7.75;6.33;;;;;;;23.84;47.66;99357.61;2248922;78;20960;-80
2021/07/22 12:35:38;;;;;;;8.35;6.15;;;;;;;23.84;47.51;99353.61;2248912;78;20964;-79
2021/07/22 12:38:38;;;;;;;8.25;6.12;;;;;;;23.98;47.94;99360.68;2248738;79;21051;-80
2021/07/22 12:41:39;;;;;;;7.10;6.22;;;;;;;24.06;48.17;99355.95;2248983;78;21039;-80
2021/07/22 12:44:51;;;;;;;6.95;5.92;;;;;;;24.18;47.46;99354.66;2249076;79;21019;-79
2021/07/22 12:47:50;;;;;;;7.22;6.47;;;;;;;24.28;47.08;99356.59;2248692;79;21008;-81
2021/07/22 12:50:51;;;;;;;9.55;6.42;;;;;;;24.36;47.00;99359.39;2248106;78;21588;-80
2021/07/22 12:53:52;;;;;;;9.18;6.40;;;;;;;24.39;46.38;99355.75;2247464;78;20920;-80
2021/07/22 12:59:54;;;;;;;7.78;6.05;;;;;;;24.62;47.22;99358.91;2225922;79;20901;-82
2021/07/22 13:02:58;;;;;;;10.28;6.33;;;;;;;24.83;46.59;99351.89;2256638;78;21344;-80
2021/07/22 13:05:59;;;;;;;11.15;7.15;;;;;;;24.98;45.86;99346.87;2289983;78;21348;-80
2021/07/22 13:08:59;;;;;;;10.25;6.80;;;;;;;25.20;45.62;99345.59;2290676;78;20960;-81
2021/07/22 13:12:00;;;;;;;8.83;6.30;;;;;;;25.38;45.13;99341.31;2290423;78;20982;-81
2021/07/22 13:15:00;;;;;;;8.48;5.90;;;;;;;25.55;43.53;99343.30;2290763;78;21019;-81
2021/07/22 13:18:01;;;;;;;8.53;6.28;;;;;;;25.55;43.89;99335.27;2291861;78;20928;-81
2021/07/22 13:21:01;;;;;;;8.48;5.95;;;;;;;25.60;44.33;99337.29;2291141;78;20967;-81
2021/07/22 13:24:02;;;;;;;6.72;6.12;;;;;;;25.78;42.11;99332.55;2290908;78;21382;-81
2021/07/22 13:27:02;;;;;;;9.33;5.33;;;;;;;25.75;43.32;99334.01;2291275;78;21348;-81
2021/07/22 13:30:04;;;;;;;6.50;5.08;;;;;;;25.75;42.21;99334.01;2291373;78;20983;-81
2021/07/22 13:33:05;;;;;;;5.67;5.15;;;;;;;25.80;42.00;99331.14;2292295;78;20978;-81
2021/07/22 13:36:05;;;;;;;6.17;4.62;;;;;;;25.77;41.15;99327.27;2291332;78;20983;-82
2021/07/22 13:39:07;;;;;;;6.70;5.50;;;;;;;25.84;41.45;99330.08;2290806;78;20955;-82
2021/07/22 13:42:07;;;;;;;9.28;5.28;;;;;;;25.77;40.41;99325.45;2290560;78;21007;-81
2021/07/22 13:45:08;;;;;;;8.70;5.12;;;;;;;25.81;41.33;99319.05;2290787;78;21071;-80
2021/07/22 13:48:08;;;;;;;6.58;5.60;;;;;;;25.89;41.24;99315.58;2290359;78;21292;-81
2021/07/22 13:51:09;;;;;;;5.80;5.25;;;;;;;25.85;40.44;99311.76;2290451;78;20974;-81
2021/07/22 13:54:09;;;;;;;10.05;5.50;;;;;;;25.80;40.87;99310.62;2290853;78;20936;-79
2021/07/22 13:57:10;;;;;;;7.83;5.42;;;;;;;25.98;40.87;99308.48;2291419;78;20960;-81
2021/07/22 14:00:11;;;;;;;8.05;5.55;;;;;;;26.03;41.72;99314.54;2290273;78;20998;-80
2021/07/22 14:03:11;;;;;;;6.30;5.80;;;;;;;26.09;41.41;99307.19;2288612;78;21009;-80
2021/07/22 14:09:37;;;;;;;8.68;6.35;;;;;;;26.10;41.28;99300.42;2279999;78;20985;-80
2021/07/22 14:12:38;;;;;;;10.85;6.90;;;;;;;25.90;41.71;99306.61;2280109;78;20962;-79
2021/07/22 14:15:38;;;;;;;8.15;6.95;;;;;;;25.77;42.36;99297.85;2280317;78;21000;-80
2021/07/22 14:18:39;;;;;;;9.33;7.22;;;;;;;25.65;42.57;99301.88;2280570;78;20992;-80